Time Latitude Longitude Accuracy (66% radius in meters) Altitude (meters) Speed (km/hour) Bearing (degrees) Battery (%) GPS flag
10:26:17 60.370736 29.556026 48 65.816838786243 0 283.57452392578 82 1 delete
11:26:09 60.371071 29.556653 32 64.276032419231 0 283.57452392578 82 0 delete
11:25:58 60.371071 29.556653 32 64.276032419231 0 283.57452392578 82 0 delete
11:25:46 60.371071 29.556653 32 64.276032419231 0 283.57452392578 82 0 delete
10:25:32 60.371071 29.556653 32 64.276032419231 0 283.57452392578 82 1 delete
10:25:20 60.370926 29.556409 32 63.254248485928 0 283.57452392578 82 1 delete
11:25:12 60.370919 29.556444 8 79.875122497823 0 283.57452392578 82 0 delete
11:25:01 60.370919 29.556444 8 79.875122497823 0 283.57452392578 82 0 delete
11:24:50 60.370919 29.556444 8 79.875122497823 0 283.57452392578 82 0 delete
11:24:39 60.370919 29.556444 8 79.875122497823 0 283.57452392578 82 0 delete
11:24:27 60.370919 29.556444 8 79.875122497823 0 283.57452392578 82 0 delete
11:24:16 60.370919 29.556444 8 79.875122497823 0 283.57452392578 82 0 delete
10:23:58 60.370926 29.556409 32 79.667104310921 0 283.57452392578 82 1 delete
10:23:47 60.370919 29.556444 16 79.66714123952 0 283.57452392578 82 1 delete
10:23:38 60.370919 29.556444 8 79.875122497823 0 283.57452392578 82 1 delete
10:23:35 60.370913 29.556538 6 80.060171793474 0 304.06924438477 82 1 delete
10:23:26 60.370866 29.556629 8 79.849450928539 0 304.06924438477 82 1 delete
10:23:17 60.370866 29.556629 6 80.047847476651 0 304.06924438477 82 1 delete
10:23:11 60.370831 29.556711 6 79.601453475266 2.22452044487 307.16754150391 82 1 delete
10:23:08 60.370781 29.556781 6 79.42886429325 1.8150206804276 340.30432128906 82 1 delete
10:23:05 60.370728 29.556809 8 79.107179596165 0 325.54208374023 82 1 delete
10:22:54 60.370667 29.556862 12 78.696555717879 0 325.54208374023 82 1 delete
10:22:45 60.370667 29.556862 6 78.600861012535 0 325.54208374023 82 1 delete
10:22:33 60.370667 29.556862 8 78.399488968508 0 325.54208374023 82 1 delete
10:22:24 60.370667 29.556862 6 78.212120899808 3.7508354187012 325.54208374023 82 1 delete
10:22:21 60.370609 29.557027 12 77.386617217749 5.3360342979431 304.20751953125 82 1 delete
10:22:18 60.370622 29.557278 8 78.354400829427 4.8858313560486 237.18199157715 82 1 delete
10:22:15 60.370751 29.557402 8 80.588975276202 6.1088581085205 164.19961547852 82 1 delete
10:22:12 60.370923 29.557202 6 83.847262892387 6.5077271461487 142.75408935547 82 1 delete
10:22:09 60.371078 29.557006 8 86.509830615975 6.3211312294006 166.69764709473 82 1 delete
10:22:06 60.371257 29.557037 8 85.266408309375 5.6451268196106 198.54241943359 82 1 delete
10:22:03 60.371441 29.557185 8 84.639332107289 6.3727126121521 204.80183410645 82 1 delete
10:22:00 60.371612 29.557372 8 85.308052141994 5.2593026161194 227.95550537109 82 1 delete
10:21:57 60.371714 29.557654 8 85.403193751414 5.7869563102722 244.88919067383 82 1 delete
10:21:54 60.371781 29.557931 8 85.162362135628 5.187940120697 248.87112426758 82 1 delete
10:21:51 60.371842 29.558211 8 85.028949672747 2.4681489467621 249.03422546387 82 1 delete
10:21:48 60.371863 29.558346 8 84.96989770385 2.6582581996918 272.27645874023 82 1 delete
10:21:45 60.371896 29.558585 8 84.68557272745 5.4791593551636 256.22946166992 82 1 delete
10:21:42 60.371955 29.558915 8 85.660504977542 6.0435490608215 254.51679992676 82 1 delete
10:21:39 60.372021 29.559314 6 87.187384019212 6.9253706932068 252.27439880371 82 1 delete
10:21:36 60.372090 29.559710 6 90.415406653794 7.5149307250977 252.37814331055 82 1 delete
10:21:33 60.372128 29.560138 6 92.751683510414 7.793505191803 257.17742919922 82 1 delete
10:21:30 60.372122 29.560605 6 95.239527134403 7.6676249504089 280.82147216797 82 1 delete
10:21:27 60.372011 29.560991 8 96.671386339223 5.1180715560913 299.88662719727 82 1 delete
10:21:24 60.371906 29.561335 8 96.587005520021 4.6877584457397 308.46267700195 82 1 delete
10:21:21 60.371784 29.561488 8 95.206965979657 4.599588394165 350.93069458008 82 1 delete
10:21:18 60.371647 29.561619 8 94.869816663375 4.6533188819885 314.17645263672 82 1 delete
10:21:15 60.371555 29.561838 8 93.514554238657 4.4760122299194 280.92813110352 82 1 delete
10:21:12 60.371520 29.562147 8 94.196679825473 4.3805937767029 268.84817504883 82 1 delete
10:21:09 60.371487 29.562445 8 95.611907649464 4.3203935623169 288.09103393555 82 1 delete